Alexandria, Ohio
Current Conditions -  °F | °C
As of 5:54 PM on Wednesday 26 Nov 2014 (Local Time) from KVTA Reporting Station
Overcast Overcast  
Wind Chill: 32°   Ceiling: 3000
Heat Index: 36°   Visibility: 10mi
Dew Point: 27°   Wind: 5mph
Humidity: 70%   Direction: 320°NW
Pressure: 30.03"   Gusts: NA
Location:  40.09°N, 82.61°W
Report Text: KVTA 262254Z AUTO 32004KT 10SM OVC030 02/M03 A3003 RMK AO2 SLP177 T00221028
Loading
Personal Weather Stations






























Interactive Weather Map New forecast layout! Learn more

10-Day Weather Forecast

Advertisements
Track Severe Weather on mobile